createdAt,value
2017-12-27T00:00:24.106Z,78.84
2017-12-27T00:01:32.069Z,78.68
2017-12-27T00:02:40.170Z,78.66
2017-12-27T00:05:25.987Z,79.08
2017-12-27T00:06:34.082Z,79.11
2017-12-27T00:07:42.116Z,78.88
2017-12-27T00:08:50.310Z,78.86
2017-12-27T00:09:58.290Z,79.11
2017-12-27T00:11:06.430Z,78.90
2017-12-27T00:12:14.478Z,79.18
2017-12-27T00:13:22.472Z,79.34
2017-12-27T00:14:30.459Z,78.85
2017-12-27T00:15:38.598Z,78.78
2017-12-27T00:16:46.835Z,78.74
2017-12-27T00:17:54.901Z,78.95
2017-12-27T00:19:02.970Z,78.60
2017-12-27T00:20:10.928Z,78.79
2017-12-27T00:21:18.924Z,79.05
2017-12-27T00:22:26.943Z,78.79
2017-12-27T00:23:35.039Z,79.07
2017-12-27T00:24:43.112Z,78.79
2017-12-27T00:25:51.197Z,79.10
2017-12-27T00:26:59.319Z,79.22
2017-12-27T00:28:07.335Z,79.13
2017-12-27T00:29:15.486Z,79.00
2017-12-27T00:30:23.565Z,78.99
2017-12-27T00:31:28.484Z,78.89
2017-12-27T00:32:30.373Z,78.63
2017-12-27T00:33:32.822Z,78.51
2017-12-27T00:34:35.284Z,78.35
2017-12-27T00:35:37.730Z,78.28
2017-12-27T00:36:40.202Z,78.52
2017-12-27T00:37:42.651Z,78.28
2017-12-27T00:38:45.116Z,78.17
2017-12-27T00:39:47.588Z,77.96
2017-12-27T00:40:50.030Z,78.07
2017-12-27T00:41:52.521Z,78.12
2017-12-27T00:42:54.980Z,78.07
2017-12-27T00:43:57.443Z,77.90
2017-12-27T00:45:00.929Z,77.71
2017-12-27T00:46:03.398Z,77.57
2017-12-27T00:47:05.867Z,77.74
2017-12-27T00:48:08.332Z,77.78
2017-12-27T00:49:10.780Z,77.53
2017-12-27T00:50:13.245Z,77.60
2017-12-27T00:51:15.693Z,77.52
2017-12-27T00:52:18.176Z,77.59
2017-12-27T00:53:20.617Z,77.88
2017-12-27T00:54:23.075Z,77.30
2017-12-27T00:55:25.522Z,77.43
2017-12-27T00:56:27.984Z,77.31
2017-12-27T00:57:30.498Z,77.39
2017-12-27T00:58:32.946Z,77.54
2017-12-27T00:59:35.404Z,77.50
2017-12-27T01:00:37.872Z,77.29
2017-12-27T01:01:40.344Z,77.30
2017-12-27T01:02:42.827Z,77.25
2017-12-27T01:03:45.299Z,76.96
2017-12-27T01:04:47.749Z,77.19
2017-12-27T01:05:50.279Z,77.04
2017-12-27T01:06:52.751Z,77.32
2017-12-27T01:07:55.252Z,77.00
2017-12-27T01:08:57.697Z,77.16
2017-12-27T01:10:00.272Z,77.22
2017-12-27T01:11:02.718Z,77.45
2017-12-27T01:12:05.175Z,77.47
2017-12-27T01:13:07.660Z,77.36
2017-12-27T01:14:10.259Z,77.44
2017-12-27T01:15:12.705Z,77.45
2017-12-27T01:16:15.162Z,77.21
2017-12-27T01:17:17.609Z,77.28
2017-12-27T01:18:20.074Z,77.15
2017-12-27T01:19:22.526Z,77.22
2017-12-27T01:20:24.987Z,77.32
2017-12-27T01:21:27.437Z,77.47
2017-12-27T01:22:29.898Z,77.23
2017-12-27T01:23:32.370Z,77.39
2017-12-27T01:24:34.841Z,77.18
2017-12-27T01:25:37.300Z,77.21
2017-12-27T01:26:39.764Z,77.36
2017-12-27T01:27:42.207Z,76.99
2017-12-27T01:28:44.670Z,77.07
2017-12-27T01:29:47.109Z,76.77
2017-12-27T01:30:49.558Z,77.03
2017-12-27T01:31:52.042Z,77.16
2017-12-27T01:32:54.486Z,77.39
2017-12-27T01:33:57.040Z,77.40
2017-12-27T01:34:59.480Z,76.97
2017-12-27T01:36:01.946Z,77.08
2017-12-27T01:37:04.394Z,77.12
2017-12-27T01:38:06.856Z,76.78
2017-12-27T01:39:09.317Z,77.23
2017-12-27T01:40:11.868Z,76.89
2017-12-27T01:41:14.332Z,77.29
2017-12-27T01:42:16.793Z,77.20
2017-12-27T01:43:19.257Z,76.81
2017-12-27T01:44:21.722Z,76.86
2017-12-27T01:45:24.188Z,76.85
2017-12-27T01:46:26.727Z,76.96
2017-12-27T01:47:29.178Z,77.05
2017-12-27T01:48:31.640Z,76.87
2017-12-27T01:49:34.110Z,76.58
2017-12-27T01:50:36.572Z,76.62
2017-12-27T01:51:39.018Z,76.60
2017-12-27T01:52:41.461Z,76.63
2017-12-27T01:53:43.906Z,76.60
2017-12-27T01:54:46.395Z,76.38
2017-12-27T01:55:48.850Z,76.00
2017-12-27T01:56:51.312Z,76.11
2017-12-27T01:57:53.792Z,76.16
2017-12-27T01:58:56.233Z,76.18
2017-12-27T01:59:58.705Z,76.22
2017-12-27T02:01:01.149Z,76.41
2017-12-27T02:02:03.616Z,76.27
2017-12-27T02:03:06.080Z,75.82
2017-12-27T02:04:08.539Z,76.09
2017-12-27T02:05:11.011Z,76.13
2017-12-27T02:06:13.473Z,76.20
2017-12-27T02:07:15.922Z,76.02
2017-12-27T02:08:18.380Z,75.97
2017-12-27T02:09:20.844Z,76.08
2017-12-27T02:10:23.318Z,75.88
2017-12-27T02:11:25.757Z,75.75
2017-12-27T02:12:28.228Z,75.49
2017-12-27T02:13:30.689Z,75.62
2017-12-27T02:14:33.158Z,75.65
2017-12-27T02:15:35.643Z,75.14
2017-12-27T02:16:38.090Z,75.33
2017-12-27T02:17:40.537Z,75.45
2017-12-27T02:18:42.998Z,75.10
2017-12-27T02:19:45.476Z,75.37
2017-12-27T02:20:47.942Z,75.21
2017-12-27T02:21:50.390Z,75.41
2017-12-27T02:22:52.848Z,75.50
2017-12-27T02:23:55.405Z,75.19
2017-12-27T02:24:57.865Z,75.12
2017-12-27T02:26:00.334Z,75.19
2017-12-27T02:27:02.778Z,75.12
2017-12-27T02:28:05.256Z,75.24
2017-12-27T02:29:07.702Z,75.21
2017-12-27T02:30:10.224Z,75.28
2017-12-27T02:31:12.691Z,75.36
2017-12-27T02:32:15.268Z,75.70
2017-12-27T02:33:17.713Z,75.29
2017-12-27T02:34:20.257Z,75.22
2017-12-27T02:35:22.722Z,75.26
2017-12-27T02:36:25.190Z,75.34
2017-12-27T02:37:27.638Z,75.34
2017-12-27T02:38:41.854Z,75.43
2017-12-27T02:41:32.252Z,75.17
2017-12-27T02:42:34.702Z,75.30
2017-12-27T02:43:37.166Z,75.19
2017-12-27T02:44:39.641Z,74.81
2017-12-27T02:45:42.100Z,74.65
2017-12-27T02:46:44.583Z,74.58
2017-12-27T02:47:47.040Z,74.64
2017-12-27T02:48:49.491Z,74.69
2017-12-27T02:49:51.963Z,74.64
2017-12-27T02:50:54.416Z,74.55
2017-12-27T02:51:56.882Z,74.52
2017-12-27T02:52:59.347Z,74.64
2017-12-27T02:54:01.812Z,73.94
2017-12-27T02:55:04.280Z,74.13
2017-12-27T02:56:06.742Z,73.82
2017-12-27T02:57:09.269Z,73.47
2017-12-27T02:58:11.709Z,73.72
2017-12-27T02:59:14.176Z,74.10
2017-12-27T03:00:16.621Z,73.23
2017-12-27T03:01:19.084Z,73.15
2017-12-27T03:02:21.549Z,73.60
2017-12-27T03:03:23.993Z,73.47
2017-12-27T03:04:26.441Z,73.24
2017-12-27T03:05:28.906Z,73.41
2017-12-27T03:06:31.350Z,73.21
2017-12-27T03:07:33.821Z,73.28
2017-12-27T03:08:36.270Z,73.22
2017-12-27T03:09:38.714Z,72.93
2017-12-27T03:10:41.179Z,72.87
2017-12-27T03:11:43.622Z,72.84
2017-12-27T03:12:46.098Z,72.63
2017-12-27T03:13:48.568Z,72.82
2017-12-27T03:14:51.018Z,72.62
2017-12-27T03:15:53.488Z,72.47
2017-12-27T03:16:55.953Z,72.45
2017-12-27T03:17:58.783Z,72.06
2017-12-27T03:19:01.244Z,72.30
2017-12-27T03:20:03.689Z,72.25
2017-12-27T03:21:06.152Z,72.18
2017-12-27T03:22:08.612Z,72.23
2017-12-27T03:23:11.097Z,72.05
2017-12-27T03:24:13.541Z,71.92
2017-12-27T03:25:15.981Z,72.11
2017-12-27T03:26:18.421Z,72.09
2017-12-27T03:27:20.869Z,71.72
2017-12-27T03:28:23.353Z,71.74
2017-12-27T03:29:25.795Z,71.81
2017-12-27T03:30:29.231Z,71.78
2017-12-27T03:31:31.682Z,71.52
2017-12-27T03:32:34.121Z,71.59
2017-12-27T03:33:36.600Z,71.69
2017-12-27T03:34:39.051Z,71.66
2017-12-27T03:35:41.513Z,71.69
2017-12-27T03:36:43.963Z,71.97
2017-12-27T03:37:46.409Z,71.79
2017-12-27T03:38:48.873Z,71.78
2017-12-27T03:39:51.340Z,71.68
2017-12-27T03:40:53.787Z,71.83
2017-12-27T03:41:56.233Z,72.50
2017-12-27T03:42:58.675Z,72.08
2017-12-27T03:44:01.166Z,71.96
2017-12-27T03:45:03.636Z,71.96
2017-12-27T03:46:06.085Z,71.86
2017-12-27T03:47:08.544Z,71.75
2017-12-27T03:48:11.029Z,71.93
2017-12-27T03:49:13.518Z,71.91
2017-12-27T03:50:15.993Z,72.04
2017-12-27T03:51:18.442Z,71.84
2017-12-27T03:52:20.917Z,72.16
2017-12-27T03:53:23.362Z,72.42
2017-12-27T03:54:25.821Z,72.28
2017-12-27T03:55:28.266Z,72.19
2017-12-27T03:56:30.738Z,71.97
2017-12-27T03:57:33.177Z,71.91
2017-12-27T03:58:35.644Z,71.97
2017-12-27T03:59:38.123Z,72.31
2017-12-27T04:00:40.624Z,72.46
2017-12-27T04:01:43.083Z,72.35
2017-12-27T04:02:45.554Z,72.07
2017-12-27T04:03:48.066Z,72.06
2017-12-27T04:04:50.551Z,71.82
2017-12-27T04:05:53.026Z,71.62
2017-12-27T04:06:55.501Z,71.72
2017-12-27T04:07:58.534Z,71.93
2017-12-27T04:09:00.982Z,71.89
2017-12-27T04:10:03.493Z,71.53
2017-12-27T04:11:05.992Z,71.51
2017-12-27T04:12:08.438Z,71.32
2017-12-27T04:13:10.907Z,71.43
2017-12-27T04:14:13.349Z,71.62
2017-12-27T04:15:15.832Z,71.23
2017-12-27T04:16:18.278Z,71.49
2017-12-27T04:17:20.741Z,71.29
2017-12-27T04:18:23.204Z,71.01
2017-12-27T04:19:25.646Z,70.77
2017-12-27T04:20:28.122Z,70.78
2017-12-27T04:21:30.624Z,70.53
2017-12-27T04:22:33.165Z,70.47
2017-12-27T04:23:35.650Z,70.80
2017-12-27T04:24:38.089Z,70.54
2017-12-27T04:25:40.596Z,70.58
2017-12-27T04:26:43.090Z,70.50
2017-12-27T04:27:45.548Z,70.43
2017-12-27T04:28:47.994Z,70.46
2017-12-27T04:29:50.460Z,70.27
2017-12-27T04:30:52.929Z,70.03
2017-12-27T04:31:55.394Z,70.31
2017-12-27T04:32:57.851Z,70.27
2017-12-27T04:34:00.316Z,70.45
2017-12-27T04:35:02.781Z,70.14
2017-12-27T04:36:05.274Z,69.97
2017-12-27T04:37:07.770Z,69.74
2017-12-27T04:38:10.296Z,69.77
2017-12-27T04:39:12.758Z,69.57
2017-12-27T04:40:15.202Z,69.21
2017-12-27T04:41:17.684Z,69.68
2017-12-27T04:42:20.144Z,69.62
2017-12-27T04:43:22.608Z,69.64
2017-12-27T04:44:25.154Z,69.75
2017-12-27T04:45:27.637Z,68.98
2017-12-27T04:46:30.116Z,69.18
2017-12-27T04:47:32.566Z,69.08
2017-12-27T04:48:35.027Z,69.32
2017-12-27T04:49:37.520Z,69.19
2017-12-27T04:50:39.980Z,68.86
2017-12-27T04:51:42.441Z,69.19
2017-12-27T04:52:44.904Z,69.18
2017-12-27T04:53:47.349Z,69.53
2017-12-27T04:54:49.820Z,69.23
2017-12-27T04:55:52.287Z,69.07
2017-12-27T04:56:54.753Z,69.07
2017-12-27T04:57:57.233Z,69.20
2017-12-27T04:58:59.700Z,69.28
2017-12-27T05:00:02.145Z,69.08
2017-12-27T05:01:04.613Z,68.82
2017-12-27T05:02:07.095Z,68.80
2017-12-27T05:03:09.560Z,68.80
2017-12-27T05:04:12.028Z,69.28
2017-12-27T05:05:14.470Z,68.69
2017-12-27T05:06:16.931Z,68.88
2017-12-27T05:07:19.401Z,69.19
2017-12-27T05:08:21.859Z,68.93
2017-12-27T05:09:24.305Z,68.85
2017-12-27T05:10:26.750Z,68.36
2017-12-27T05:11:29.198Z,69.25
2017-12-27T05:12:31.683Z,69.18
2017-12-27T05:13:34.141Z,69.39
2017-12-27T05:14:36.585Z,69.24
2017-12-27T05:15:39.051Z,68.86
2017-12-27T05:16:41.516Z,69.12
2017-12-27T05:17:44.033Z,69.16
2017-12-27T05:18:46.492Z,69.26
2017-12-27T05:19:48.952Z,69.00
2017-12-27T05:20:51.419Z,69.27
2017-12-27T05:21:53.880Z,69.42
2017-12-27T05:22:56.368Z,69.47
2017-12-27T05:23:58.813Z,69.64
2017-12-27T05:25:01.272Z,69.71
2017-12-27T05:26:03.739Z,69.49
2017-12-27T05:27:06.196Z,69.66
2017-12-27T05:28:08.666Z,69.89
2017-12-27T05:29:11.120Z,69.79
2017-12-27T05:30:13.582Z,70.15
2017-12-27T05:31:16.045Z,69.95
2017-12-27T05:32:18.539Z,70.09
2017-12-27T05:33:21.028Z,70.03
2017-12-27T05:34:23.487Z,69.95
2017-12-27T05:35:25.948Z,69.90
2017-12-27T05:36:28.414Z,70.02
2017-12-27T05:37:30.867Z,69.90
2017-12-27T05:38:33.348Z,70.15
2017-12-27T05:39:35.790Z,70.05
2017-12-27T05:40:38.248Z,70.32
2017-12-27T05:41:40.723Z,70.21
2017-12-27T05:42:43.179Z,70.22
2017-12-27T05:43:45.665Z,69.97
2017-12-27T05:44:48.129Z,70.18
2017-12-27T05:45:50.597Z,70.51
2017-12-27T05:46:53.057Z,70.37
2017-12-27T05:47:55.497Z,70.40
2017-12-27T05:48:57.976Z,70.62
2017-12-27T05:50:00.442Z,70.51
2017-12-27T05:51:02.885Z,70.64
2017-12-27T05:52:05.444Z,70.88
2017-12-27T05:53:07.908Z,70.87
2017-12-27T05:54:10.377Z,70.86
2017-12-27T05:55:12.842Z,71.18
2017-12-27T05:56:15.302Z,71.21
2017-12-27T05:57:17.750Z,70.96
2017-12-27T05:58:20.208Z,71.27
2017-12-27T05:59:22.673Z,71.16
2017-12-27T06:00:25.124Z,71.25
2017-12-27T06:01:27.574Z,71.51
2017-12-27T06:02:30.042Z,71.40
2017-12-27T06:03:32.519Z,71.58
2017-12-27T06:04:35.045Z,71.59
2017-12-27T06:05:38.686Z,71.73
2017-12-27T06:06:41.129Z,71.73
2017-12-27T06:07:43.573Z,71.96
2017-12-27T06:08:46.033Z,71.93
2017-12-27T06:09:48.520Z,71.75
2017-12-27T06:10:50.981Z,71.84
2017-12-27T06:11:53.440Z,71.92
2017-12-27T06:12:55.917Z,72.05
2017-12-27T06:13:58.365Z,72.12
2017-12-27T06:15:00.834Z,72.40
2017-12-27T06:16:03.295Z,72.52
2017-12-27T06:17:05.756Z,72.70
2017-12-27T06:18:08.209Z,72.89
2017-12-27T06:19:10.682Z,73.12
2017-12-27T06:20:13.169Z,73.29
2017-12-27T06:21:15.648Z,73.68
2017-12-27T06:22:18.107Z,73.46
2017-12-27T06:23:20.589Z,73.42
2017-12-27T06:24:23.052Z,73.43
2017-12-27T06:25:25.540Z,73.65
2017-12-27T06:26:28.005Z,73.61
2017-12-27T06:27:30.457Z,74.50
2017-12-27T06:28:32.912Z,73.91
2017-12-27T06:29:35.354Z,73.47
2017-12-27T06:30:37.836Z,73.36
2017-12-27T06:31:40.279Z,73.57
2017-12-27T06:32:42.743Z,73.77
2017-12-27T06:33:45.204Z,73.45
2017-12-27T06:34:47.647Z,73.80
2017-12-27T06:35:50.132Z,74.45
2017-12-27T06:36:52.593Z,73.56
2017-12-27T06:37:55.064Z,74.21
2017-12-27T06:38:58.416Z,74.30
2017-12-27T06:40:00.919Z,74.01
2017-12-27T06:41:03.420Z,74.29
2017-12-27T06:42:05.862Z,74.25
2017-12-27T06:43:08.321Z,74.73
2017-12-27T06:44:10.802Z,73.61
2017-12-27T06:45:13.267Z,73.23
2017-12-27T06:46:15.750Z,73.92
2017-12-27T06:47:18.210Z,74.32
2017-12-27T06:48:20.672Z,74.49
2017-12-27T06:49:23.122Z,75.07
2017-12-27T06:50:25.571Z,75.01
2017-12-27T06:51:28.060Z,75.17
2017-12-27T06:52:30.507Z,75.19
2017-12-27T06:53:33.007Z,75.49
2017-12-27T06:54:35.469Z,75.97
2017-12-27T06:55:37.922Z,76.02
2017-12-27T06:56:40.404Z,76.01
2017-12-27T06:57:42.850Z,76.59
2017-12-27T06:58:45.298Z,77.06
2017-12-27T06:59:47.746Z,77.16
2017-12-27T07:00:50.201Z,77.60
2017-12-27T07:01:52.680Z,77.58
2017-12-27T07:02:55.139Z,77.51
2017-12-27T07:03:57.597Z,77.92
2017-12-27T07:05:00.104Z,78.10
2017-12-27T07:06:02.552Z,78.04
2017-12-27T07:07:05.036Z,78.49
2017-12-27T07:08:07.503Z,78.63
2017-12-27T07:09:09.954Z,78.11
2017-12-27T07:10:12.429Z,78.25
2017-12-27T07:11:14.898Z,78.50
2017-12-27T07:12:17.391Z,78.77
2017-12-27T07:13:19.838Z,78.93
2017-12-27T07:14:22.277Z,78.31
2017-12-27T07:15:24.740Z,78.67
2017-12-27T07:16:27.205Z,78.88
2017-12-27T07:17:29.693Z,78.94
2017-12-27T07:18:32.196Z,79.35
2017-12-27T07:19:34.656Z,79.19
2017-12-27T07:20:37.132Z,78.96
2017-12-27T07:21:39.583Z,78.56
2017-12-27T07:22:42.068Z,79.03
2017-12-27T07:23:44.511Z,79.32
2017-12-27T07:24:47.043Z,79.38
2017-12-27T07:25:49.508Z,79.52
2017-12-27T07:26:51.949Z,80.04
2017-12-27T07:27:54.424Z,79.90
2017-12-27T07:28:56.884Z,80.05
2017-12-27T07:29:59.334Z,79.54
2017-12-27T07:31:01.774Z,80.13
2017-12-27T07:32:04.226Z,80.16
2017-12-27T07:33:06.695Z,80.06
2017-12-27T07:34:09.160Z,80.05
2017-12-27T07:35:11.620Z,79.80
2017-12-27T07:36:14.122Z,80.11
2017-12-27T07:37:16.583Z,80.51
2017-12-27T07:38:19.107Z,80.13
2017-12-27T07:39:21.653Z,79.79
2017-12-27T07:40:24.097Z,80.15
2017-12-27T07:41:26.570Z,80.09
2017-12-27T07:42:29.010Z,80.44
2017-12-27T07:43:31.469Z,80.40
2017-12-27T07:44:33.932Z,80.38
2017-12-27T07:45:36.373Z,80.44
2017-12-27T07:46:38.814Z,80.39
2017-12-27T07:47:41.278Z,80.72
2017-12-27T07:48:43.745Z,80.33
2017-12-27T07:49:46.208Z,80.71
2017-12-27T07:50:48.676Z,81.09
2017-12-27T07:51:51.139Z,81.03
2017-12-27T07:52:53.582Z,81.07
2017-12-27T07:53:56.101Z,81.30
2017-12-27T07:54:58.564Z,81.43
2017-12-27T07:56:01.024Z,81.41
2017-12-27T07:57:03.492Z,81.92
2017-12-27T07:58:05.946Z,81.41
2017-12-27T07:59:08.432Z,82.41
2017-12-27T08:00:10.904Z,82.47
2017-12-27T08:01:13.367Z,82.01
2017-12-27T08:02:15.811Z,83.22
2017-12-27T08:03:18.280Z,83.19
2017-12-27T08:04:20.768Z,83.21
2017-12-27T08:05:23.228Z,83.63
2017-12-27T08:06:25.687Z,83.26
2017-12-27T08:07:28.134Z,83.43
2017-12-27T08:08:30.592Z,84.09
2017-12-27T08:09:33.051Z,84.10
2017-12-27T08:10:35.494Z,84.66
2017-12-27T08:11:37.939Z,84.29
2017-12-27T08:12:40.382Z,84.86
2017-12-27T08:13:42.844Z,85.03
2017-12-27T08:14:45.323Z,84.68
2017-12-27T08:15:47.785Z,85.12
2017-12-27T08:16:50.230Z,85.38
2017-12-27T08:17:52.688Z,85.65
2017-12-27T08:18:55.156Z,85.25
2017-12-27T08:19:57.876Z,85.63
2017-12-27T08:21:00.329Z,85.41
2017-12-27T08:22:02.788Z,85.35
2017-12-27T08:23:05.247Z,85.38
2017-12-27T08:24:07.745Z,86.19
2017-12-27T08:25:10.209Z,86.16
2017-12-27T08:26:12.649Z,85.85
2017-12-27T08:27:15.094Z,85.73
2017-12-27T08:28:17.537Z,85.82
2017-12-27T08:29:19.978Z,85.96
2017-12-27T08:30:22.456Z,86.11
2017-12-27T08:31:24.920Z,85.92
2017-12-27T08:32:27.362Z,86.44
2017-12-27T08:33:29.824Z,86.47
2017-12-27T08:34:32.277Z,86.21
2017-12-27T08:35:34.741Z,86.61
2017-12-27T08:36:37.196Z,85.87
2017-12-27T08:37:39.651Z,86.14
2017-12-27T08:38:42.094Z,86.32
2017-12-27T08:39:44.552Z,86.35
2017-12-27T08:40:47.034Z,86.07
2017-12-27T08:41:49.496Z,86.76
2017-12-27T08:42:51.941Z,86.44
2017-12-27T08:43:54.381Z,86.73
2017-12-27T08:44:56.821Z,86.83
2017-12-27T08:45:59.322Z,86.04
2017-12-27T08:47:01.765Z,86.24
2017-12-27T08:48:04.214Z,86.27
2017-12-27T08:49:06.650Z,85.89
2017-12-27T08:50:09.108Z,86.15
2017-12-27T08:51:11.570Z,86.06
2017-12-27T08:52:14.032Z,86.26
2017-12-27T08:53:16.492Z,85.92
2017-12-27T08:54:18.934Z,85.88
2017-12-27T08:55:21.396Z,85.25
2017-12-27T08:56:23.876Z,85.60
2017-12-27T08:57:26.340Z,85.86
2017-12-27T08:58:28.785Z,85.82
2017-12-27T08:59:31.242Z,85.03
2017-12-27T09:00:33.698Z,85.71
2017-12-27T09:01:36.162Z,85.97
2017-12-27T09:02:38.681Z,85.19
2017-12-27T09:03:41.148Z,85.50
2017-12-27T09:04:43.602Z,85.65
2017-12-27T09:05:46.064Z,85.68
2017-12-27T09:06:48.534Z,85.64
2017-12-27T09:07:50.992Z,85.59
2017-12-27T09:08:53.452Z,86.13
2017-12-27T09:09:55.951Z,85.56
2017-12-27T09:10:58.389Z,85.74
2017-12-27T09:12:00.869Z,85.69
2017-12-27T09:13:03.320Z,85.97
2017-12-27T09:14:05.805Z,86.30
2017-12-27T09:15:08.245Z,85.29
2017-12-27T09:16:10.747Z,85.44
2017-12-27T09:17:13.230Z,85.51
2017-12-27T09:18:15.691Z,85.66
2017-12-27T09:19:18.134Z,85.73
2017-12-27T09:20:20.592Z,85.37
2017-12-27T09:21:23.044Z,85.62
2017-12-27T09:22:25.518Z,85.44
2017-12-27T09:23:27.962Z,86.46
2017-12-27T09:24:30.424Z,85.76
2017-12-27T09:25:32.888Z,86.05
2017-12-27T09:26:35.371Z,85.94
2017-12-27T09:27:37.829Z,85.85
2017-12-27T09:28:40.292Z,84.53
2017-12-27T09:29:42.734Z,84.58
2017-12-27T09:30:45.192Z,85.27
2017-12-27T09:31:47.642Z,85.19
2017-12-27T09:32:50.113Z,85.16
2017-12-27T09:33:52.572Z,85.29
2017-12-27T09:34:55.037Z,86.01
2017-12-27T09:35:57.500Z,85.68
2017-12-27T09:36:59.945Z,86.16
2017-12-27T09:38:02.428Z,86.07
2017-12-27T09:39:04.893Z,86.05
2017-12-27T09:40:07.477Z,86.30
2017-12-27T09:41:09.952Z,86.85
2017-12-27T09:42:12.410Z,86.59
2017-12-27T09:43:14.892Z,86.76
2017-12-27T09:44:17.334Z,86.94
2017-12-27T09:45:19.782Z,87.29
2017-12-27T09:46:22.249Z,87.20
2017-12-27T09:47:24.697Z,87.10
2017-12-27T09:48:27.181Z,87.39
2017-12-27T09:49:29.646Z,87.02
2017-12-27T09:50:32.089Z,87.58
2017-12-27T09:51:34.549Z,87.45
2017-12-27T09:52:37.008Z,87.53
2017-12-27T09:53:39.488Z,87.65
2017-12-27T09:54:41.951Z,87.09
2017-12-27T09:55:44.421Z,87.47
2017-12-27T09:56:46.866Z,87.72
2017-12-27T09:57:50.357Z,87.98
2017-12-27T09:58:54.034Z,88.32
2017-12-27T09:59:56.554Z,88.24
2017-12-27T10:00:59.018Z,88.10
2017-12-27T10:02:01.476Z,88.13
2017-12-27T10:03:03.987Z,88.42
2017-12-27T10:04:06.481Z,88.16
2017-12-27T10:05:10.014Z,88.86
2017-12-27T10:06:13.783Z,88.40
2017-12-27T10:07:17.449Z,88.80
2017-12-27T10:08:19.970Z,89.07
2017-12-27T10:09:22.444Z,89.40
2017-12-27T10:10:24.891Z,89.48
2017-12-27T10:11:27.352Z,89.58
2017-12-27T10:12:29.811Z,89.84
2017-12-27T10:13:32.272Z,89.62
2017-12-27T10:14:34.734Z,89.59
2017-12-27T10:15:37.174Z,89.63
2017-12-27T10:16:39.614Z,89.49
2017-12-27T10:17:42.071Z,89.89
2017-12-27T10:18:44.513Z,89.73
2017-12-27T10:19:46.997Z,89.80
2017-12-27T10:20:49.456Z,89.72
2017-12-27T10:21:51.915Z,89.79
2017-12-27T10:22:54.378Z,89.23
2017-12-27T10:23:56.933Z,89.52
2017-12-27T10:24:59.393Z,89.47
2017-12-27T10:26:01.861Z,89.39
2017-12-27T10:27:04.320Z,89.47
2017-12-27T10:28:06.770Z,89.18
2017-12-27T10:29:09.217Z,89.25
2017-12-27T10:30:11.686Z,89.03
2017-12-27T10:31:14.130Z,89.53
2017-12-27T10:32:16.576Z,90.08
2017-12-27T10:33:19.018Z,90.05
2017-12-27T10:34:21.464Z,89.70
2017-12-27T10:35:23.944Z,89.78
2017-12-27T10:36:26.386Z,89.99
2017-12-27T10:37:28.834Z,90.15
2017-12-27T10:38:31.300Z,90.16
2017-12-27T10:39:33.760Z,90.21
2017-12-27T10:40:36.247Z,90.10
2017-12-27T10:41:38.690Z,89.86
2017-12-27T10:42:41.141Z,89.93
2017-12-27T10:43:43.601Z,89.90
2017-12-27T10:44:46.068Z,89.63
2017-12-27T10:45:48.543Z,89.19
2017-12-27T10:46:51.049Z,89.51
2017-12-27T10:47:53.516Z,89.86
2017-12-27T10:48:55.976Z,89.68
2017-12-27T10:49:58.440Z,89.51
2017-12-27T10:51:00.917Z,89.57
2017-12-27T10:52:03.375Z,89.32
2017-12-27T10:53:05.826Z,89.36
2017-12-27T10:54:08.273Z,89.33
2017-12-27T10:55:10.760Z,89.25
2017-12-27T10:56:13.228Z,89.27
2017-12-27T10:57:15.696Z,89.20
2017-12-27T10:58:18.161Z,89.12
2017-12-27T10:59:20.624Z,88.75
2017-12-27T11:00:23.088Z,88.49
2017-12-27T11:01:25.569Z,88.57
2017-12-27T11:02:28.010Z,88.70
2017-12-27T11:03:31.495Z,88.59
2017-12-27T11:04:33.952Z,88.39
2017-12-27T11:05:36.412Z,88.23
2017-12-27T11:06:38.898Z,88.16
2017-12-27T11:07:41.366Z,88.14
2017-12-27T11:08:43.814Z,88.06
2017-12-27T11:09:46.275Z,88.00
2017-12-27T11:10:48.736Z,88.26
2017-12-27T11:11:51.178Z,88.59
2017-12-27T11:12:53.633Z,88.31
2017-12-27T11:13:56.137Z,88.22
2017-12-27T11:14:58.653Z,88.62
2017-12-27T11:16:01.074Z,88.45
2017-12-27T11:17:03.531Z,88.68
2017-12-27T11:18:05.988Z,89.09
2017-12-27T11:19:08.519Z,89.64
2017-12-27T11:20:10.978Z,89.58
2017-12-27T11:21:13.426Z,89.17
2017-12-27T11:22:15.900Z,88.89
2017-12-27T11:23:18.365Z,88.97
2017-12-27T11:24:20.820Z,89.33
2017-12-27T11:25:23.268Z,89.09
2017-12-27T11:26:25.723Z,89.01
2017-12-27T11:27:28.186Z,88.87
2017-12-27T11:28:30.646Z,89.43
2017-12-27T11:29:33.116Z,89.55
2017-12-27T11:30:35.583Z,89.14
2017-12-27T11:31:38.052Z,89.46
2017-12-27T11:32:40.527Z,88.52
2017-12-27T11:33:42.985Z,88.89
2017-12-27T11:34:45.451Z,88.78
2017-12-27T11:35:47.913Z,88.71
2017-12-27T11:36:50.395Z,88.43
2017-12-27T11:37:52.891Z,88.62
2017-12-27T11:38:55.342Z,88.93
2017-12-27T11:39:57.804Z,89.08
2017-12-27T11:41:00.250Z,88.70
2017-12-27T11:42:02.716Z,88.67
2017-12-27T11:43:05.196Z,88.37
2017-12-27T11:44:07.656Z,88.07
2017-12-27T11:45:10.102Z,88.59
2017-12-27T11:46:12.560Z,88.28
2017-12-27T11:47:15.014Z,88.31
2017-12-27T11:48:17.508Z,88.32
2017-12-27T11:49:19.972Z,88.13
2017-12-27T11:50:22.456Z,87.76
2017-12-27T11:51:24.898Z,87.84
2017-12-27T11:52:27.345Z,87.24
2017-12-27T11:53:29.829Z,87.57
2017-12-27T11:54:32.288Z,88.09
2017-12-27T11:55:34.735Z,88.02
2017-12-27T11:56:37.192Z,88.16
2017-12-27T11:57:39.656Z,87.92
2017-12-27T11:58:42.125Z,88.13
2017-12-27T11:59:44.574Z,88.14
2017-12-27T12:00:47.024Z,87.74
2017-12-27T12:01:49.470Z,87.65
2017-12-27T12:02:51.910Z,87.20
2017-12-27T12:03:54.392Z,87.31
2017-12-27T12:04:56.931Z,87.12
2017-12-27T12:05:59.373Z,87.31
2017-12-27T12:07:01.819Z,86.82
2017-12-27T12:08:04.270Z,86.86
2017-12-27T12:09:06.760Z,86.34
2017-12-27T12:10:09.219Z,86.71
2017-12-27T12:11:11.688Z,86.75
2017-12-27T12:12:14.130Z,86.61
2017-12-27T12:13:16.588Z,86.29
2017-12-27T12:14:19.064Z,86.24
2017-12-27T12:15:21.505Z,86.31
2017-12-27T12:16:23.964Z,85.93
2017-12-27T12:17:26.428Z,85.92
2017-12-27T12:18:28.890Z,86.09
2017-12-27T12:19:31.354Z,85.57
2017-12-27T12:20:33.816Z,86.02
2017-12-27T12:21:36.266Z,85.77
2017-12-27T12:22:38.710Z,85.66
2017-12-27T12:23:41.153Z,85.63
2017-12-27T12:24:43.640Z,85.01
2017-12-27T12:25:46.118Z,85.16
2017-12-27T12:26:48.580Z,85.34
2017-12-27T12:27:51.044Z,85.30
2017-12-27T12:28:53.491Z,84.52
2017-12-27T12:29:55.959Z,83.77
2017-12-27T12:30:58.408Z,85.08
2017-12-27T12:32:00.853Z,85.22
2017-12-27T12:33:03.363Z,84.54
2017-12-27T12:34:05.814Z,83.92
2017-12-27T12:35:08.296Z,84.02
2017-12-27T12:36:10.751Z,84.09
2017-12-27T12:37:13.255Z,83.45
2017-12-27T12:38:15.701Z,83.36
2017-12-27T12:39:18.173Z,83.67
2017-12-27T12:40:20.638Z,83.43
2017-12-27T12:41:23.124Z,83.36
2017-12-27T12:42:25.648Z,83.58
2017-12-27T12:43:28.116Z,83.62
2017-12-27T12:44:30.580Z,83.15
2017-12-27T12:45:33.089Z,82.64
2017-12-27T12:46:35.533Z,82.19
2017-12-27T12:47:37.974Z,82.98
2017-12-27T12:48:40.448Z,83.51
2017-12-27T12:49:42.897Z,82.64
2017-12-27T12:50:45.400Z,83.78
2017-12-27T12:51:47.890Z,82.57
2017-12-27T12:52:50.334Z,83.05
2017-12-27T12:53:52.796Z,82.51
2017-12-27T12:54:55.247Z,81.67
2017-12-27T12:55:57.734Z,81.27
2017-12-27T12:57:00.192Z,80.24
2017-12-27T12:58:02.663Z,79.80
2017-12-27T12:59:05.119Z,79.32
2017-12-27T13:00:07.575Z,79.31
2017-12-27T13:01:10.059Z,78.92
2017-12-27T13:02:12.502Z,79.50
2017-12-27T13:03:14.957Z,79.31
2017-12-27T13:04:17.406Z,79.91
2017-12-27T13:05:19.868Z,80.03
2017-12-27T13:06:22.349Z,79.67
2017-12-27T13:07:24.831Z,79.28
2017-12-27T13:08:27.300Z,80.53
2017-12-27T13:09:29.759Z,80.58
2017-12-27T13:10:32.220Z,80.61
2017-12-27T13:11:34.700Z,80.71
2017-12-27T13:12:37.180Z,81.35
2017-12-27T13:13:39.622Z,81.73
2017-12-27T13:14:42.070Z,81.91
2017-12-27T13:15:44.553Z,81.04
2017-12-27T13:16:47.040Z,81.51
2017-12-27T13:17:49.485Z,81.13
2017-12-27T13:18:51.948Z,80.38
2017-12-27T13:19:54.408Z,81.26
2017-12-27T13:20:56.872Z,81.36
2017-12-27T13:21:59.343Z,81.31
2017-12-27T13:23:01.799Z,81.09
2017-12-27T13:24:04.263Z,81.23
2017-12-27T13:25:06.710Z,81.25
2017-12-27T13:26:09.163Z,81.15
2017-12-27T13:27:11.643Z,81.22
2017-12-27T13:28:14.094Z,80.99
2017-12-27T13:29:16.549Z,80.75
2017-12-27T13:30:18.999Z,80.30